createdAt,value
2018-11-06T00:01:13.914Z,11.04
2018-11-06T00:03:54.434Z,11.06
2018-11-06T00:06:31.776Z,11.10
2018-11-06T00:09:09.245Z,11.12
2018-11-06T00:11:47.078Z,11.17
2018-11-06T00:14:26.214Z,11.21
2018-11-06T00:17:01.587Z,11.26
2018-11-06T00:19:38.860Z,11.52
2018-11-06T00:22:16.614Z,11.45
2018-11-06T00:24:54.173Z,11.43
2018-11-06T00:27:31.732Z,11.42
2018-11-06T00:30:09.407Z,11.42
2018-11-06T00:32:46.936Z,11.42
2018-11-06T00:35:24.654Z,11.43
2018-11-06T00:38:01.932Z,11.44
2018-11-06T00:40:39.117Z,11.45
2018-11-06T00:43:16.595Z,11.50
2018-11-06T00:45:53.423Z,11.48
2018-11-06T00:48:31.113Z,11.47
2018-11-06T00:51:08.431Z,11.45
2018-11-06T00:53:50.055Z,11.45
2018-11-06T00:56:27.950Z,11.43
2018-11-06T00:59:04.880Z,11.43
2018-11-06T01:01:55.461Z,11.43
2018-11-06T01:04:38.193Z,11.38
2018-11-06T01:07:22.533Z,11.36
2018-11-06T01:10:00.475Z,11.35
2018-11-06T01:12:37.705Z,11.34
2018-11-06T01:15:16.918Z,11.35
2018-11-06T01:17:54.249Z,11.33
2018-11-06T01:20:31.299Z,11.31
2018-11-06T01:23:10.370Z,11.30
2018-11-06T01:25:47.170Z,11.28
2018-11-06T01:28:26.359Z,11.28
2018-11-06T01:31:04.054Z,11.26
2018-11-06T01:33:33.501Z,11.25
2018-11-06T01:36:03.372Z,11.25
2018-11-06T01:38:32.967Z,11.23
2018-11-06T01:41:02.491Z,11.24
2018-11-06T01:43:32.135Z,11.24
2018-11-06T01:46:01.546Z,11.25
2018-11-06T01:48:30.969Z,11.23
2018-11-06T01:51:01.760Z,11.22
2018-11-06T01:53:31.199Z,11.18
2018-11-06T01:56:00.809Z,11.16
2018-11-06T01:58:30.286Z,11.15
2018-11-06T02:00:59.937Z,11.13
2018-11-06T02:03:29.576Z,11.11
2018-11-06T02:05:59.284Z,11.08
2018-11-06T02:08:32.759Z,11.04
2018-11-06T02:11:02.194Z,11.00
2018-11-06T02:13:32.146Z,10.95
2018-11-06T02:16:01.831Z,10.93
2018-11-06T02:18:31.579Z,10.91
2018-11-06T02:21:01.139Z,10.90
2018-11-06T02:23:30.558Z,10.91
2018-11-06T02:26:00.051Z,10.89
2018-11-06T02:28:29.472Z,10.86
2018-11-06T02:30:58.870Z,10.84
2018-11-06T02:33:28.868Z,10.82
2018-11-06T02:35:58.243Z,10.80
2018-11-06T02:38:27.650Z,10.76
2018-11-06T02:40:57.084Z,10.74
2018-11-06T02:43:26.518Z,10.74
2018-11-06T02:45:56.368Z,10.72
2018-11-06T02:48:26.663Z,10.72
2018-11-06T02:50:56.297Z,10.70
2018-11-06T02:53:25.758Z,10.69
2018-11-06T02:55:55.260Z,10.68
2018-11-06T02:58:24.639Z,10.66
2018-11-06T03:00:54.137Z,10.67
2018-11-06T03:03:25.388Z,10.65
2018-11-06T03:05:54.857Z,10.63
2018-11-06T03:08:24.716Z,10.63
2018-11-06T03:10:54.138Z,10.61
2018-11-06T03:13:23.707Z,10.60
2018-11-06T03:15:53.089Z,10.60
2018-11-06T03:18:22.901Z,10.59
2018-11-06T03:20:52.367Z,10.56
2018-11-06T03:23:21.758Z,10.55
2018-11-06T03:25:51.258Z,10.52
2018-11-06T03:28:20.654Z,10.51
2018-11-06T03:30:50.292Z,10.35
2018-11-06T03:33:20.582Z,10.46
2018-11-06T03:35:50.100Z,10.45
2018-11-06T03:38:19.521Z,10.43
2018-11-06T03:40:49.170Z,10.41
2018-11-06T03:43:18.612Z,10.37
2018-11-06T03:45:48.777Z,10.34
2018-11-06T03:48:18.146Z,10.31
2018-11-06T03:50:47.623Z,10.28
2018-11-06T03:53:17.037Z,10.24
2018-11-06T03:55:46.722Z,10.18
2018-11-06T03:58:16.404Z,10.15
2018-11-06T04:00:46.074Z,10.13
2018-11-06T04:03:15.576Z,10.09
2018-11-06T04:05:45.238Z,10.04
2018-11-06T04:08:14.636Z,9.99
2018-11-06T04:10:43.998Z,9.97
2018-11-06T04:13:13.388Z,9.95
2018-11-06T04:15:46.351Z,9.92
2018-11-06T04:18:15.795Z,9.90
2018-11-06T04:20:45.408Z,9.89
2018-11-06T04:23:14.999Z,9.84
2018-11-06T04:25:44.483Z,9.81
2018-11-06T04:28:14.134Z,9.79
2018-11-06T04:30:43.569Z,9.76
2018-11-06T04:33:13.017Z,9.73
2018-11-06T04:35:42.644Z,9.71
2018-11-06T04:38:12.041Z,9.69
2018-11-06T04:40:41.476Z,9.65
2018-11-06T04:43:10.917Z,9.62
2018-11-06T04:45:40.676Z,9.57
2018-11-06T04:48:10.302Z,9.54
2018-11-06T04:50:39.754Z,9.50
2018-11-06T04:53:09.203Z,9.47
2018-11-06T04:55:38.636Z,9.44
2018-11-06T04:58:08.053Z,9.40
2018-11-06T05:00:37.556Z,9.38
2018-11-06T05:03:07.090Z,9.35
2018-11-06T05:05:36.720Z,9.32
2018-11-06T05:08:06.367Z,9.27
2018-11-06T05:10:35.980Z,9.24
2018-11-06T05:13:06.540Z,9.20
2018-11-06T05:15:36.120Z,9.18
2018-11-06T05:18:06.615Z,9.02
2018-11-06T05:20:36.101Z,9.11
2018-11-06T05:23:06.502Z,9.07
2018-11-06T05:25:35.945Z,9.04
2018-11-06T05:28:06.227Z,9.00
2018-11-06T05:30:35.681Z,8.94
2018-11-06T05:33:06.641Z,8.89
2018-11-06T05:35:36.295Z,8.85
2018-11-06T05:38:06.508Z,8.80
2018-11-06T05:41:02.092Z,8.73
2018-11-06T05:43:31.511Z,8.63
2018-11-06T05:46:01.273Z,8.59
2018-11-06T05:48:31.057Z,8.56
2018-11-06T05:51:00.685Z,8.53
2018-11-06T05:53:30.814Z,8.49
2018-11-06T05:56:00.258Z,8.45
2018-11-06T05:58:29.777Z,8.43
2018-11-06T06:00:59.199Z,8.40
2018-11-06T06:03:29.056Z,8.38
2018-11-06T06:06:00.515Z,8.36
2018-11-06T06:08:29.929Z,8.33
2018-11-06T06:10:59.423Z,8.32
2018-11-06T06:13:28.824Z,8.32
2018-11-06T06:15:58.336Z,8.29
2018-11-06T06:18:27.835Z,8.28
2018-11-06T06:20:57.754Z,8.28
2018-11-06T06:23:27.207Z,8.28
2018-11-06T06:25:56.682Z,8.26
2018-11-06T06:28:26.400Z,8.25
2018-11-06T06:31:04.197Z,8.27
2018-11-06T06:33:37.716Z,8.26
2018-11-06T06:36:11.343Z,8.26
2018-11-06T06:38:40.922Z,8.22
2018-11-06T06:41:10.412Z,8.25
2018-11-06T06:43:39.858Z,8.26
2018-11-06T06:46:09.357Z,8.29
2018-11-06T06:48:39.070Z,8.31
2018-11-06T06:51:08.789Z,8.36
2018-11-06T06:53:39.690Z,8.39
2018-11-06T06:56:09.191Z,8.43
2018-11-06T06:58:38.676Z,8.47
2018-11-06T07:01:08.273Z,8.52
2018-11-06T07:03:37.794Z,8.53
2018-11-06T07:06:07.459Z,8.56
2018-11-06T07:08:37.211Z,8.62
2018-11-06T07:11:06.620Z,8.68
2018-11-06T07:13:36.572Z,8.72
2018-11-06T07:16:07.480Z,8.78
2018-11-06T07:18:37.259Z,8.81
2018-11-06T07:21:09.653Z,8.68
2018-11-06T07:23:39.222Z,8.92
2018-11-06T07:26:08.767Z,8.98
2018-11-06T07:28:38.395Z,9.05
2018-11-06T07:31:08.555Z,9.11
2018-11-06T07:33:43.581Z,9.17
2018-11-06T07:36:12.990Z,9.24
2018-11-06T07:38:42.420Z,9.30
2018-11-06T07:41:11.978Z,9.34
2018-11-06T07:43:42.385Z,9.40
2018-11-06T07:46:12.027Z,9.46
2018-11-06T07:48:41.415Z,9.52
2018-11-06T07:51:12.139Z,9.58
2018-11-06T07:53:41.615Z,9.64
2018-11-06T07:56:11.322Z,9.66
2018-11-06T07:58:41.690Z,9.75
2018-11-06T08:01:11.591Z,9.79
2018-11-06T08:03:41.240Z,9.85
2018-11-06T08:06:11.204Z,9.91
2018-11-06T08:08:41.463Z,9.97
2018-11-06T08:11:11.683Z,10.03
2018-11-06T08:13:46.659Z,10.08
2018-11-06T08:16:16.497Z,10.15
2018-11-06T08:18:45.968Z,10.18
2018-11-06T08:21:19.640Z,10.26
2018-11-06T08:23:49.320Z,10.32
2018-11-06T08:26:18.780Z,10.40
2018-11-06T08:28:48.344Z,10.50
2018-11-06T08:31:18.038Z,10.57
2018-11-06T08:33:51.656Z,10.67
2018-11-06T08:36:21.363Z,10.72
2018-11-06T08:38:51.002Z,10.80
2018-11-06T08:41:20.452Z,10.86
2018-11-06T08:43:49.900Z,10.92
2018-11-06T08:46:19.675Z,10.95
2018-11-06T08:48:49.160Z,11.01
2018-11-06T08:51:18.671Z,11.09
2018-11-06T08:53:48.507Z,11.18
2018-11-06T08:56:18.030Z,11.30
2018-11-06T08:58:49.197Z,11.42
2018-11-06T09:01:21.116Z,11.55
2018-11-06T09:03:50.854Z,11.68
2018-11-06T09:06:20.765Z,11.81
2018-11-06T09:08:51.092Z,11.93
2018-11-06T09:11:20.741Z,12.03
2018-11-06T09:13:51.355Z,12.10
2018-11-06T09:16:21.039Z,12.12
2018-11-06T09:18:50.501Z,12.14
2018-11-06T09:21:19.961Z,12.16
2018-11-06T09:23:50.432Z,12.15
2018-11-06T09:26:23.848Z,12.17
2018-11-06T09:28:53.556Z,12.17
2018-11-06T09:31:23.400Z,12.18
2018-11-06T09:33:52.811Z,12.19
2018-11-06T09:36:22.943Z,12.20
2018-11-06T09:38:52.487Z,12.23
2018-11-06T09:41:21.955Z,12.28
2018-11-06T09:43:51.347Z,12.33
2018-11-06T09:46:20.773Z,12.36
2018-11-06T09:48:50.234Z,12.41
2018-11-06T09:51:19.623Z,12.47
2018-11-06T09:53:49.158Z,12.53
2018-11-06T09:56:18.602Z,12.62
2018-11-06T09:58:48.258Z,12.70
2018-11-06T10:01:17.710Z,12.81
2018-11-06T10:03:47.068Z,12.89
2018-11-06T10:06:16.621Z,12.96
2018-11-06T10:08:45.969Z,13.25
2018-11-06T10:11:15.463Z,13.29
2018-11-06T10:13:45.141Z,13.36
2018-11-06T10:16:15.676Z,13.43
2018-11-06T10:18:45.164Z,13.49
2018-11-06T10:21:14.644Z,13.54
2018-11-06T10:23:44.277Z,13.56
2018-11-06T10:26:13.900Z,13.62
2018-11-06T10:28:43.263Z,13.68
2018-11-06T10:31:12.720Z,13.75
2018-11-06T10:33:42.164Z,13.84
2018-11-06T10:36:11.669Z,13.93
2018-11-06T10:38:41.124Z,14.04
2018-11-06T10:41:10.567Z,14.14
2018-11-06T10:43:40.062Z,14.24
2018-11-06T10:46:10.246Z,14.35
2018-11-06T10:48:39.683Z,14.49
2018-11-06T10:51:09.234Z,14.61
2018-11-06T10:53:38.622Z,14.71
2018-11-06T10:56:08.382Z,14.81
2018-11-06T10:58:37.797Z,14.96
2018-11-06T11:01:12.606Z,15.09
2018-11-06T11:03:47.312Z,15.20
2018-11-06T11:06:16.682Z,15.32
2018-11-06T11:08:50.674Z,15.41
2018-11-06T11:11:20.102Z,15.49
2018-11-06T11:13:49.766Z,15.54
2018-11-06T11:16:19.240Z,15.56
2018-11-06T11:18:48.634Z,15.56
2018-11-06T11:21:18.148Z,15.57
2018-11-06T11:23:47.562Z,15.60
2018-11-06T11:26:17.088Z,15.66
2018-11-06T11:28:46.514Z,15.72
2018-11-06T11:31:16.218Z,15.79
2018-11-06T11:33:45.807Z,15.87
2018-11-06T11:36:15.255Z,15.94
2018-11-06T11:38:44.853Z,15.98
2018-11-06T11:41:14.247Z,16.04
2018-11-06T11:43:43.656Z,16.11
2018-11-06T11:46:13.167Z,16.19
2018-11-06T11:48:42.695Z,16.23
2018-11-06T11:51:12.372Z,16.26
2018-11-06T11:53:41.780Z,16.31
2018-11-06T11:56:11.454Z,16.37
2018-11-06T11:58:43.249Z,16.45
2018-11-06T12:01:14.964Z,16.52
2018-11-06T12:03:44.410Z,16.61
2018-11-06T12:06:13.894Z,16.73
2018-11-06T12:08:43.292Z,16.85
2018-11-06T12:11:12.754Z,16.96
2018-11-06T12:13:42.250Z,17.03
2018-11-06T12:16:11.704Z,17.15
2018-11-06T12:18:41.663Z,17.25
2018-11-06T12:21:11.221Z,17.32
2018-11-06T12:23:40.609Z,17.37
2018-11-06T12:26:10.059Z,17.43
2018-11-06T12:28:39.720Z,17.48
2018-11-06T12:31:09.174Z,17.51
2018-11-06T12:33:38.690Z,17.56
2018-11-06T12:36:08.156Z,17.58
2018-11-06T12:38:37.702Z,17.60
2018-11-06T12:41:07.458Z,17.61
2018-11-06T12:43:37.077Z,17.67
2018-11-06T12:46:06.856Z,17.97
2018-11-06T12:48:36.397Z,18.46
2018-11-06T12:51:06.794Z,19.12
2018-11-06T12:53:36.858Z,19.64
2018-11-06T12:56:06.626Z,19.95
2018-11-06T12:58:36.066Z,20.20
2018-11-06T13:01:06.620Z,20.36
2018-11-06T13:03:36.149Z,20.55
2018-11-06T13:06:06.694Z,20.58
2018-11-06T13:08:36.200Z,20.40
2018-11-06T13:11:06.563Z,20.14
2018-11-06T13:13:36.121Z,19.89
2018-11-06T13:16:06.270Z,19.65
2018-11-06T13:18:35.681Z,19.54
2018-11-06T13:21:06.236Z,19.44
2018-11-06T13:23:35.652Z,19.34
2018-11-06T13:26:06.487Z,19.26
2018-11-06T13:28:36.024Z,19.21
2018-11-06T13:31:06.706Z,19.15
2018-11-06T13:33:36.099Z,19.06
2018-11-06T13:36:07.202Z,18.99
2018-11-06T13:38:36.744Z,18.91
2018-11-06T13:41:06.572Z,18.81
2018-11-06T13:43:36.149Z,18.72
2018-11-06T13:46:06.504Z,18.66
2018-11-06T13:48:35.938Z,18.58
2018-11-06T13:51:06.917Z,18.51
2018-11-06T13:53:36.425Z,18.44
2018-11-06T13:56:06.989Z,18.41
2018-11-06T13:58:36.622Z,18.39
2018-11-06T14:01:07.020Z,18.55
2018-11-06T14:03:37.435Z,18.50
2018-11-06T14:06:07.102Z,18.48
2018-11-06T14:08:37.266Z,18.46
2018-11-06T14:11:07.924Z,18.46
2018-11-06T14:13:37.305Z,18.45
2018-11-06T14:16:08.482Z,18.46
2018-11-06T14:18:38.023Z,18.46
2018-11-06T14:21:07.689Z,18.44
2018-11-06T14:23:37.321Z,18.38
2018-11-06T14:26:07.105Z,18.29
2018-11-06T14:28:36.686Z,18.23
2018-11-06T14:31:06.441Z,18.16
2018-11-06T14:33:35.883Z,18.11
2018-11-06T14:36:07.211Z,18.07
2018-11-06T14:38:37.372Z,18.03
2018-11-06T14:41:06.832Z,18.00
2018-11-06T14:43:37.023Z,17.94
2018-11-06T14:46:06.780Z,17.88
2018-11-06T14:48:36.278Z,17.82
2018-11-06T14:51:06.304Z,17.72
2018-11-06T14:53:35.828Z,17.65
2018-11-06T14:56:06.760Z,17.59
2018-11-06T14:58:36.464Z,17.53
2018-11-06T15:01:07.623Z,17.45
2018-11-06T15:03:37.177Z,17.37
2018-11-06T15:06:06.873Z,17.30
2018-11-06T15:08:36.314Z,17.08
2018-11-06T15:11:06.539Z,17.09
2018-11-06T15:13:36.284Z,16.96
2018-11-06T15:16:06.458Z,16.85
2018-11-06T15:18:35.988Z,16.73
2018-11-06T15:21:07.025Z,16.60
2018-11-06T15:23:36.390Z,16.45
2018-11-06T15:26:07.101Z,16.33
2018-11-06T15:28:38.636Z,16.21
2018-11-06T15:31:09.002Z,16.09
2018-11-06T15:33:38.761Z,15.98
2018-11-06T15:36:08.442Z,15.89
2018-11-06T15:38:38.172Z,15.79
2018-11-06T15:41:08.160Z,15.72
2018-11-06T15:43:38.355Z,15.64
2018-11-06T15:46:08.554Z,15.54
2018-11-06T15:48:38.181Z,15.43
2018-11-06T15:51:07.492Z,15.33
2018-11-06T15:53:36.911Z,15.23
2018-11-06T15:56:07.324Z,15.15
2018-11-06T15:58:36.853Z,15.07
2018-11-06T16:01:06.524Z,14.99
2018-11-06T16:03:35.920Z,14.90
2018-11-06T16:06:06.693Z,14.80
2018-11-06T16:08:36.262Z,14.71
2018-11-06T16:11:06.747Z,14.64
2018-11-06T16:13:37.464Z,14.56
2018-11-06T16:16:07.551Z,14.50
2018-11-06T16:18:37.286Z,14.46
2018-11-06T16:21:06.882Z,14.41
2018-11-06T16:23:36.179Z,14.34
2018-11-06T16:26:07.773Z,14.27
2018-11-06T16:28:37.663Z,14.20
2018-11-06T16:31:07.887Z,14.11
2018-11-06T16:33:37.325Z,14.06
2018-11-06T16:36:06.976Z,14.00
2018-11-06T16:38:36.447Z,13.95
2018-11-06T16:41:07.480Z,13.92
2018-11-06T16:43:37.102Z,13.91
2018-11-06T16:46:07.902Z,13.88
2018-11-06T16:48:37.435Z,13.84
2018-11-06T16:51:07.769Z,13.82
2018-11-06T16:53:37.264Z,13.79
2018-11-06T16:56:07.324Z,13.74
2018-11-06T16:58:36.833Z,13.71
2018-11-06T17:01:06.713Z,13.70
2018-11-06T17:03:36.010Z,13.67
2018-11-06T17:06:10.936Z,13.66
2018-11-06T17:08:40.482Z,13.63
2018-11-06T17:11:09.892Z,13.58
2018-11-06T17:13:40.016Z,13.55
2018-11-06T17:16:09.442Z,13.49
2018-11-06T17:18:38.943Z,13.45
2018-11-06T17:21:08.780Z,13.40
2018-11-06T17:23:38.374Z,13.37
2018-11-06T17:26:07.832Z,13.34
2018-11-06T17:28:37.495Z,13.30
2018-11-06T17:31:07.153Z,13.26
2018-11-06T17:33:36.836Z,13.23
2018-11-06T17:36:07.450Z,13.18
2018-11-06T17:41:12.410Z,13.10
2018-11-06T17:43:41.887Z,13.06
2018-11-06T17:46:11.343Z,12.91
2018-11-06T17:48:40.884Z,12.98
2018-11-06T17:51:10.363Z,12.94
2018-11-06T17:53:40.129Z,12.91
2018-11-06T17:56:10.366Z,12.88
2018-11-06T17:58:39.749Z,12.83
2018-11-06T18:01:09.216Z,12.82
2018-11-06T18:03:38.672Z,12.81
2018-11-06T18:06:08.466Z,12.80
2018-11-06T18:08:38.237Z,12.77
2018-11-06T18:11:07.785Z,12.73
2018-11-06T18:13:37.315Z,12.70
2018-11-06T18:16:07.131Z,12.64
2018-11-06T18:18:36.677Z,12.59
2018-11-06T18:21:06.552Z,12.56
2018-11-06T18:23:36.130Z,12.54
2018-11-06T18:26:06.228Z,12.51
2018-11-06T18:28:35.903Z,12.48
2018-11-06T18:31:06.221Z,12.46
2018-11-06T18:33:35.707Z,12.41
2018-11-06T18:36:06.402Z,12.37
2018-11-06T18:38:36.194Z,12.34
2018-11-06T18:41:06.618Z,12.32
2018-11-06T18:43:36.006Z,12.27
2018-11-06T18:46:06.651Z,12.23
2018-11-06T18:48:36.519Z,12.20
2018-11-06T18:51:06.337Z,12.16
2018-11-06T18:53:36.173Z,12.15
2018-11-06T18:56:06.527Z,12.13
2018-11-06T18:58:36.054Z,12.10
2018-11-06T19:01:07.048Z,12.08
2018-11-06T19:03:36.477Z,12.05
2018-11-06T19:06:06.430Z,12.02
2018-11-06T19:08:35.944Z,11.98
2018-11-06T19:11:06.654Z,11.94
2018-11-06T19:13:36.163Z,11.91
2018-11-06T19:16:06.347Z,11.88
2018-11-06T19:18:35.805Z,11.86
2018-11-06T19:21:09.712Z,11.82
2018-11-06T19:23:39.263Z,11.80
2018-11-06T19:26:09.130Z,11.78
2018-11-06T19:28:38.709Z,11.77
2018-11-06T19:31:08.164Z,11.75
2018-11-06T19:33:37.706Z,11.76
2018-11-06T19:36:07.201Z,11.76
2018-11-06T19:38:36.960Z,11.78
2018-11-06T19:41:07.123Z,11.79
2018-11-06T19:43:36.699Z,11.79
2018-11-06T19:46:06.666Z,11.81
2018-11-06T19:48:36.179Z,11.81
2018-11-06T19:51:06.502Z,11.81
2018-11-06T19:53:37.487Z,11.79
2018-11-06T19:56:06.959Z,11.77
2018-11-06T19:58:36.411Z,11.77
2018-11-06T20:01:06.367Z,11.79
2018-11-06T20:03:36.324Z,11.80
2018-11-06T20:06:06.761Z,11.79
2018-11-06T20:08:36.249Z,11.78
2018-11-06T20:11:06.806Z,11.78
2018-11-06T20:13:36.324Z,11.78
2018-11-06T20:16:06.326Z,11.74
2018-11-06T20:18:35.975Z,11.71
2018-11-06T20:21:07.018Z,11.69
2018-11-06T20:23:36.526Z,11.67
2018-11-06T20:26:07.935Z,11.64
2018-11-06T20:28:37.642Z,11.59
2018-11-06T20:31:07.279Z,11.53
2018-11-06T20:33:36.811Z,11.60
2018-11-06T20:36:06.636Z,11.52
2018-11-06T20:38:36.085Z,11.43
2018-11-06T20:41:06.242Z,11.36
2018-11-06T20:43:35.635Z,11.31
2018-11-06T20:46:06.693Z,11.26
2018-11-06T20:48:36.186Z,11.23
2018-11-06T20:51:06.623Z,11.21
2018-11-06T20:53:36.095Z,11.19
2018-11-06T20:56:07.276Z,11.16
2018-11-06T20:58:37.295Z,11.26
2018-11-06T21:01:07.703Z,11.19
2018-11-06T21:03:37.173Z,11.17
2018-11-06T21:06:06.917Z,11.16
2018-11-06T21:08:36.555Z,11.15
2018-11-06T21:11:06.607Z,11.11
2018-11-06T21:13:36.135Z,11.06
2018-11-06T21:16:07.168Z,11.05
2018-11-06T21:18:36.651Z,11.03
2018-11-06T21:21:06.573Z,10.96
2018-11-06T21:23:35.980Z,10.90
2018-11-06T21:26:06.672Z,10.85
2018-11-06T21:28:36.175Z,10.80
2018-11-06T21:31:07.858Z,10.74
2018-11-06T21:33:37.413Z,10.67
2018-11-06T21:36:06.832Z,10.61
2018-11-06T21:38:36.406Z,10.56
2018-11-06T21:41:06.463Z,10.52
2018-11-06T21:43:35.998Z,10.46
2018-11-06T21:46:05.555Z,10.41
2018-11-06T21:48:35.072Z,10.38
2018-11-06T21:51:04.514Z,10.32
2018-11-06T21:53:33.995Z,10.33
2018-11-06T21:56:03.863Z,10.31
2018-11-06T21:58:35.434Z,10.30
2018-11-06T22:01:05.395Z,10.28
2018-11-06T22:03:35.767Z,10.15
2018-11-06T22:06:05.311Z,10.23
2018-11-06T22:08:34.971Z,10.21
2018-11-06T22:11:04.940Z,10.19
2018-11-06T22:13:35.091Z,10.14
2018-11-06T22:16:10.448Z,10.10
2018-11-06T22:18:41.342Z,10.08
2018-11-06T22:21:11.715Z,10.04
2018-11-06T22:23:42.867Z,10.02
2018-11-06T22:26:13.180Z,9.98
2018-11-06T22:28:42.721Z,9.96
2018-11-06T22:31:12.400Z,9.94
2018-11-06T22:33:43.500Z,9.90
2018-11-06T22:36:14.072Z,9.87
2018-11-06T22:38:43.927Z,9.85
2018-11-06T22:41:14.394Z,9.83
2018-11-06T22:43:43.948Z,9.79
2018-11-06T22:46:13.514Z,9.76
2018-11-06T22:48:42.953Z,9.72
2018-11-06T22:51:12.496Z,9.70
2018-11-06T22:53:42.064Z,9.63
2018-11-06T22:56:11.688Z,9.63
2018-11-06T22:58:41.215Z,9.59
2018-11-06T23:01:17.748Z,9.56
2018-11-06T23:03:47.592Z,9.51
2018-11-06T23:06:17.392Z,9.46
2018-11-06T23:08:46.606Z,9.40
2018-11-06T23:11:16.088Z,9.38
2018-11-06T23:13:45.701Z,9.36
2018-11-06T23:16:15.486Z,9.35
2018-11-06T23:18:45.059Z,9.34
2018-11-06T23:21:14.970Z,9.34
2018-11-06T23:23:44.637Z,9.33
2018-11-06T23:26:15.367Z,9.34
2018-11-06T23:28:45.085Z,9.35
2018-11-06T23:31:14.540Z,9.37
2018-11-06T23:33:44.543Z,9.39
2018-11-06T23:36:14.112Z,9.42
2018-11-06T23:38:43.658Z,9.46
2018-11-06T23:41:13.113Z,9.50
2018-11-06T23:43:42.543Z,9.54
2018-11-06T23:46:12.133Z,9.56
2018-11-06T23:48:41.953Z,9.58
2018-11-06T23:51:11.427Z,9.65
2018-11-06T23:53:41.866Z,9.70
2018-11-06T23:56:11.321Z,9.74
2018-11-06T23:58:40.941Z,9.69
